sensor_id;sensor_type;location;lat;lon;timestamp;P1;durP1;ratioP1;P2;durP2;ratioP2
4758;SDS011;2393;50.560;12.636;2023-07-22T00:00:11;2.90;;;2.70;;
4758;SDS011;2393;50.560;12.636;2023-07-22T00:02:44;2.30;;;1.93;;
4758;SDS011;2393;50.560;12.636;2023-07-22T00:05:14;6.50;;;2.30;;
4758;SDS011;2393;50.560;12.636;2023-07-22T00:07:48;4.73;;;2.10;;
4758;SDS011;2393;50.560;12.636;2023-07-22T00:10:18;3.07;;;2.77;;
4758;SDS011;2393;50.560;12.636;2023-07-22T00:12:46;7.17;;;1.90;;
4758;SDS011;2393;50.560;12.636;2023-07-22T00:15:16;4.20;;;2.13;;
4758;SDS011;2393;50.560;12.636;2023-07-22T00:17:47;8.27;;;3.23;;
4758;SDS011;2393;50.560;12.636;2023-07-22T00:20:19;2.13;;;1.93;;
4758;SDS011;2393;50.560;12.636;2023-07-22T00:22:47;1.57;;;1.57;;
4758;SDS011;2393;50.560;12.636;2023-07-22T00:25:17;3.73;;;2.83;;
4758;SDS011;2393;50.560;12.636;2023-07-22T00:27:46;4.93;;;2.43;;
4758;SDS011;2393;50.560;12.636;2023-07-22T00:30:15;3.30;;;2.47;;
4758;SDS011;2393;50.560;12.636;2023-07-22T00:32:43;6.00;;;2.50;;
4758;SDS011;2393;50.560;12.636;2023-07-22T00:35:13;5.00;;;2.30;;
4758;SDS011;2393;50.560;12.636;2023-07-22T00:37:45;2.83;;;2.47;;
4758;SDS011;2393;50.560;12.636;2023-07-22T00:40:15;2.77;;;2.40;;
4758;SDS011;2393;50.560;12.636;2023-07-22T00:42:44;2.37;;;2.27;;
4758;SDS011;2393;50.560;12.636;2023-07-22T00:45:13;10.10;;;3.03;;
4758;SDS011;2393;50.560;12.636;2023-07-22T00:47:43;2.93;;;2.30;;
4758;SDS011;2393;50.560;12.636;2023-07-22T00:50:14;3.10;;;2.53;;
4758;SDS011;2393;50.560;12.636;2023-07-22T00:52:44;5.30;;;2.90;;
4758;SDS011;2393;50.560;12.636;2023-07-22T00:55:13;2.77;;;2.27;;
4758;SDS011;2393;50.560;12.636;2023-07-22T00:57:41;2.83;;;1.90;;
4758;SDS011;2393;50.560;12.636;2023-07-22T01:00:11;2.67;;;2.20;;
4758;SDS011;2393;50.560;12.636;2023-07-22T01:02:42;3.33;;;2.37;;
4758;SDS011;2393;50.560;12.636;2023-07-22T01:05:12;1.93;;;1.83;;
4758;SDS011;2393;50.560;12.636;2023-07-22T01:07:41;2.73;;;2.50;;
4758;SDS011;2393;50.560;12.636;2023-07-22T01:10:14;1.97;;;1.87;;
4758;SDS011;2393;50.560;12.636;2023-07-22T01:12:44;2.57;;;2.37;;
4758;SDS011;2393;50.560;12.636;2023-07-22T01:15:15;1.97;;;1.87;;
4758;SDS011;2393;50.560;12.636;2023-07-22T01:17:44;2.60;;;2.40;;
4758;SDS011;2393;50.560;12.636;2023-07-22T01:20:13;3.00;;;2.40;;
4758;SDS011;2393;50.560;12.636;2023-07-22T01:22:50;2.80;;;2.60;;
4758;SDS011;2393;50.560;12.636;2023-07-22T01:25:20;2.40;;;2.10;;
4758;SDS011;2393;50.560;12.636;2023-07-22T01:27:51;2.20;;;2.00;;
4758;SDS011;2393;50.560;12.636;2023-07-22T01:30:20;2.17;;;1.93;;
4758;SDS011;2393;50.560;12.636;2023-07-22T01:32:48;2.97;;;2.67;;
4758;SDS011;2393;50.560;12.636;2023-07-22T01:35:18;4.07;;;2.50;;
4758;SDS011;2393;50.560;12.636;2023-07-22T01:37:47;4.77;;;2.30;;
4758;SDS011;2393;50.560;12.636;2023-07-22T01:40:17;2.30;;;2.20;;
4758;SDS011;2393;50.560;12.636;2023-07-22T01:42:47;3.20;;;2.50;;
4758;SDS011;2393;50.560;12.636;2023-07-22T01:45:17;2.73;;;2.53;;
4758;SDS011;2393;50.560;12.636;2023-07-22T01:47:46;3.37;;;2.93;;
4758;SDS011;2393;50.560;12.636;2023-07-22T01:50:15;2.57;;;2.13;;
4758;SDS011;2393;50.560;12.636;2023-07-22T01:52:45;2.00;;;1.90;;
4758;SDS011;2393;50.560;12.636;2023-07-22T01:55:16;3.97;;;2.53;;
4758;SDS011;2393;50.560;12.636;2023-07-22T01:57:45;2.73;;;2.53;;
4758;SDS011;2393;50.560;12.636;2023-07-22T02:00:14;2.97;;;2.63;;
4758;SDS011;2393;50.560;12.636;2023-07-22T02:02:44;9.80;;;3.20;;
4758;SDS011;2393;50.560;12.636;2023-07-22T02:05:13;4.37;;;3.20;;
4758;SDS011;2393;50.560;12.636;2023-07-22T02:07:42;2.80;;;2.57;;
4758;SDS011;2393;50.560;12.636;2023-07-22T02:10:10;4.40;;;2.80;;
4758;SDS011;2393;50.560;12.636;2023-07-22T02:12:41;4.23;;;2.73;;
4758;SDS011;2393;50.560;12.636;2023-07-22T02:15:10;2.50;;;2.40;;
4758;SDS011;2393;50.560;12.636;2023-07-22T02:17:39;2.60;;;2.40;;
4758;SDS011;2393;50.560;12.636;2023-07-22T02:20:08;3.03;;;2.70;;
4758;SDS011;2393;50.560;12.636;2023-07-22T02:22:37;3.37;;;2.90;;
4758;SDS011;2393;50.560;12.636;2023-07-22T02:25:06;3.40;;;3.10;;
4758;SDS011;2393;50.560;12.636;2023-07-22T02:27:37;5.17;;;3.57;;
4758;SDS011;2393;50.560;12.636;2023-07-22T02:30:11;3.80;;;3.47;;
4758;SDS011;2393;50.560;12.636;2023-07-22T02:32:41;3.60;;;3.30;;
4758;SDS011;2393;50.560;12.636;2023-07-22T02:35:10;7.03;;;3.40;;
4758;SDS011;2393;50.560;12.636;2023-07-22T02:37:39;7.70;;;3.40;;
4758;SDS011;2393;50.560;12.636;2023-07-22T02:40:08;3.27;;;3.00;;
4758;SDS011;2393;50.560;12.636;2023-07-22T02:42:38;14.47;;;4.67;;
4758;SDS011;2393;50.560;12.636;2023-07-22T02:45:08;6.40;;;3.67;;
4758;SDS011;2393;50.560;12.636;2023-07-22T02:47:38;3.80;;;3.40;;
4758;SDS011;2393;50.560;12.636;2023-07-22T02:50:08;4.03;;;3.27;;
4758;SDS011;2393;50.560;12.636;2023-07-22T02:52:37;3.93;;;3.57;;
4758;SDS011;2393;50.560;12.636;2023-07-22T02:55:07;7.10;;;4.63;;
4758;SDS011;2393;50.560;12.636;2023-07-22T02:57:38;7.73;;;5.47;;
4758;SDS011;2393;50.560;12.636;2023-07-22T03:00:09;7.70;;;5.27;;
4758;SDS011;2393;50.560;12.636;2023-07-22T03:02:41;5.57;;;4.10;;
4758;SDS011;2393;50.560;12.636;2023-07-22T03:05:10;5.10;;;4.00;;
4758;SDS011;2393;50.560;12.636;2023-07-22T03:07:40;8.43;;;4.27;;
4758;SDS011;2393;50.560;12.636;2023-07-22T03:10:09;7.70;;;5.20;;
4758;SDS011;2393;50.560;12.636;2023-07-22T03:12:38;4.23;;;3.83;;
4758;SDS011;2393;50.560;12.636;2023-07-22T03:15:07;9.80;;;5.30;;
4758;SDS011;2393;50.560;12.636;2023-07-22T03:17:36;6.63;;;4.50;;
4758;SDS011;2393;50.560;12.636;2023-07-22T03:20:08;7.50;;;4.07;;
4758;SDS011;2393;50.560;12.636;2023-07-22T03:22:41;5.33;;;3.57;;
4758;SDS011;2393;50.560;12.636;2023-07-22T03:25:10;5.47;;;4.43;;
4758;SDS011;2393;50.560;12.636;2023-07-22T03:27:41;5.20;;;3.00;;
4758;SDS011;2393;50.560;12.636;2023-07-22T03:30:10;4.83;;;4.37;;
4758;SDS011;2393;50.560;12.636;2023-07-22T03:32:42;5.13;;;4.00;;
4758;SDS011;2393;50.560;12.636;2023-07-22T03:35:16;4.40;;;3.70;;
4758;SDS011;2393;50.560;12.636;2023-07-22T03:37:45;5.03;;;4.57;;
4758;SDS011;2393;50.560;12.636;2023-07-22T03:40:14;10.47;;;3.80;;
4758;SDS011;2393;50.560;12.636;2023-07-22T03:42:46;7.67;;;4.47;;
4758;SDS011;2393;50.560;12.636;2023-07-22T03:45:15;6.63;;;4.60;;
4758;SDS011;2393;50.560;12.636;2023-07-22T03:47:44;4.40;;;3.97;;
4758;SDS011;2393;50.560;12.636;2023-07-22T03:50:14;7.17;;;4.20;;
4758;SDS011;2393;50.560;12.636;2023-07-22T03:52:44;5.40;;;4.73;;
4758;SDS011;2393;50.560;12.636;2023-07-22T03:55:13;6.83;;;4.40;;
4758;SDS011;2393;50.560;12.636;2023-07-22T03:57:42;5.27;;;4.47;;
4758;SDS011;2393;50.560;12.636;2023-07-22T04:00:11;5.60;;;4.80;;
4758;SDS011;2393;50.560;12.636;2023-07-22T04:02:40;5.53;;;3.50;;
4758;SDS011;2393;50.560;12.636;2023-07-22T04:05:09;5.60;;;4.43;;
4758;SDS011;2393;50.560;12.636;2023-07-22T04:07:41;9.80;;;4.97;;
4758;SDS011;2393;50.560;12.636;2023-07-22T04:10:12;5.47;;;4.53;;
4758;SDS011;2393;50.560;12.636;2023-07-22T04:12:40;5.00;;;4.00;;
4758;SDS011;2393;50.560;12.636;2023-07-22T04:15:09;4.73;;;4.33;;
4758;SDS011;2393;50.560;12.636;2023-07-22T04:17:38;8.73;;;5.37;;
4758;SDS011;2393;50.560;12.636;2023-07-22T04:20:07;5.20;;;4.70;;
4758;SDS011;2393;50.560;12.636;2023-07-22T04:22:36;5.37;;;4.00;;
4758;SDS011;2393;50.560;12.636;2023-07-22T04:25:08;5.37;;;4.70;;
4758;SDS011;2393;50.560;12.636;2023-07-22T04:27:37;12.33;;;5.20;;
4758;SDS011;2393;50.560;12.636;2023-07-22T04:30:06;6.83;;;4.43;;
4758;SDS011;2393;50.560;12.636;2023-07-22T04:32:36;14.67;;;4.83;;
4758;SDS011;2393;50.560;12.636;2023-07-22T04:35:07;5.03;;;4.53;;
4758;SDS011;2393;50.560;12.636;2023-07-22T04:37:36;5.77;;;4.30;;
4758;SDS011;2393;50.560;12.636;2023-07-22T04:40:09;6.83;;;4.30;;
4758;SDS011;2393;50.560;12.636;2023-07-22T04:42:40;6.23;;;4.03;;
4758;SDS011;2393;50.560;12.636;2023-07-22T04:45:10;4.37;;;3.97;;
4758;SDS011;2393;50.560;12.636;2023-07-22T04:47:40;6.13;;;4.17;;
4758;SDS011;2393;50.560;12.636;2023-07-22T04:50:11;5.67;;;3.73;;
4758;SDS011;2393;50.560;12.636;2023-07-22T04:52:41;3.87;;;3.53;;
4758;SDS011;2393;50.560;12.636;2023-07-22T04:55:13;5.70;;;4.20;;
4758;SDS011;2393;50.560;12.636;2023-07-22T04:57:42;4.77;;;4.30;;
4758;SDS011;2393;50.560;12.636;2023-07-22T05:00:12;6.23;;;4.60;;
4758;SDS011;2393;50.560;12.636;2023-07-22T05:02:42;11.07;;;4.53;;
4758;SDS011;2393;50.560;12.636;2023-07-22T05:05:12;3.23;;;2.97;;
4758;SDS011;2393;50.560;12.636;2023-07-22T05:07:41;5.83;;;4.47;;
4758;SDS011;2393;50.560;12.636;2023-07-22T05:10:13;4.83;;;4.10;;
4758;SDS011;2393;50.560;12.636;2023-07-22T05:12:43;4.43;;;3.47;;
4758;SDS011;2393;50.560;12.636;2023-07-22T05:15:12;7.17;;;4.20;;
4758;SDS011;2393;50.560;12.636;2023-07-22T05:17:41;11.80;;;4.33;;
4758;SDS011;2393;50.560;12.636;2023-07-22T05:20:10;9.17;;;4.97;;
4758;SDS011;2393;50.560;12.636;2023-07-22T05:22:39;6.80;;;5.00;;
4758;SDS011;2393;50.560;12.636;2023-07-22T05:25:08;6.63;;;4.80;;
4758;SDS011;2393;50.560;12.636;2023-07-22T05:27:39;3.33;;;3.10;;
4758;SDS011;2393;50.560;12.636;2023-07-22T05:30:09;3.87;;;3.57;;
4758;SDS011;2393;50.560;12.636;2023-07-22T05:32:58;6.60;;;4.20;;
4758;SDS011;2393;50.560;12.636;2023-07-22T05:35:27;4.17;;;3.80;;
4758;SDS011;2393;50.560;12.636;2023-07-22T05:37:56;5.93;;;4.37;;
4758;SDS011;2393;50.560;12.636;2023-07-22T05:40:24;4.73;;;4.30;;
4758;SDS011;2393;50.560;12.636;2023-07-22T05:42:54;6.13;;;5.03;;
4758;SDS011;2393;50.560;12.636;2023-07-22T05:45:24;10.90;;;3.90;;
4758;SDS011;2393;50.560;12.636;2023-07-22T05:47:52;4.60;;;3.90;;
4758;SDS011;2393;50.560;12.636;2023-07-22T05:50:21;3.93;;;3.63;;
4758;SDS011;2393;50.560;12.636;2023-07-22T05:52:51;7.03;;;5.13;;
4758;SDS011;2393;50.560;12.636;2023-07-22T05:55:20;7.00;;;5.03;;
4758;SDS011;2393;50.560;12.636;2023-07-22T05:57:48;7.10;;;3.90;;
4758;SDS011;2393;50.560;12.636;2023-07-22T06:00:18;6.00;;;3.83;;
4758;SDS011;2393;50.560;12.636;2023-07-22T06:02:47;5.50;;;3.47;;
4758;SDS011;2393;50.560;12.636;2023-07-22T06:05:16;5.83;;;4.20;;
4758;SDS011;2393;50.560;12.636;2023-07-22T06:07:45;4.20;;;3.80;;
4758;SDS011;2393;50.560;12.636;2023-07-22T06:10:14;11.03;;;4.77;;
4758;SDS011;2393;50.560;12.636;2023-07-22T06:12:43;4.40;;;4.00;;
4758;SDS011;2393;50.560;12.636;2023-07-22T06:15:11;7.33;;;3.87;;
4758;SDS011;2393;50.560;12.636;2023-07-22T06:17:41;4.13;;;3.70;;
4758;SDS011;2393;50.560;12.636;2023-07-22T06:20:10;6.77;;;4.60;;
4758;SDS011;2393;50.560;12.636;2023-07-22T06:22:39;6.13;;;3.97;;
4758;SDS011;2393;50.560;12.636;2023-07-22T06:25:09;5.13;;;4.40;;
4758;SDS011;2393;50.560;12.636;2023-07-22T06:27:38;9.57;;;4.60;;
4758;SDS011;2393;50.560;12.636;2023-07-22T06:30:12;8.03;;;4.77;;
4758;SDS011;2393;50.560;12.636;2023-07-22T06:32:42;6.53;;;4.27;;
4758;SDS011;2393;50.560;12.636;2023-07-22T06:35:11;5.97;;;4.63;;
4758;SDS011;2393;50.560;12.636;2023-07-22T06:37:40;10.77;;;5.30;;
4758;SDS011;2393;50.560;12.636;2023-07-22T06:40:10;10.87;;;5.83;;
4758;SDS011;2393;50.560;12.636;2023-07-22T06:42:39;10.03;;;5.80;;
4758;SDS011;2393;50.560;12.636;2023-07-22T06:45:08;6.93;;;5.50;;
4758;SDS011;2393;50.560;12.636;2023-07-22T06:47:37;5.50;;;4.97;;
4758;SDS011;2393;50.560;12.636;2023-07-22T06:50:09;8.57;;;5.80;;
4758;SDS011;2393;50.560;12.636;2023-07-22T06:52:38;15.03;;;6.37;;
4758;SDS011;2393;50.560;12.636;2023-07-22T06:55:06;10.40;;;6.70;;
4758;SDS011;2393;50.560;12.636;2023-07-22T06:57:37;9.70;;;5.57;;
4758;SDS011;2393;50.560;12.636;2023-07-22T07:00:06;6.73;;;5.50;;
4758;SDS011;2393;50.560;12.636;2023-07-22T07:02:36;5.80;;;5.20;;
4758;SDS011;2393;50.560;12.636;2023-07-22T07:05:05;8.00;;;5.00;;
4758;SDS011;2393;50.560;12.636;2023-07-22T07:07:36;6.40;;;5.57;;
4758;SDS011;2393;50.560;12.636;2023-07-22T07:10:06;8.03;;;5.40;;
4758;SDS011;2393;50.560;12.636;2023-07-22T07:12:35;9.90;;;6.03;;
4758;SDS011;2393;50.560;12.636;2023-07-22T07:15:04;9.63;;;5.80;;
4758;SDS011;2393;50.560;12.636;2023-07-22T07:17:35;6.17;;;5.37;;
4758;SDS011;2393;50.560;12.636;2023-07-22T07:20:04;10.87;;;6.10;;
4758;SDS011;2393;50.560;12.636;2023-07-22T07:22:35;6.20;;;4.73;;
4758;SDS011;2393;50.560;12.636;2023-07-22T07:25:04;7.77;;;5.43;;
4758;SDS011;2393;50.560;12.636;2023-07-22T07:27:33;10.93;;;6.07;;
4758;SDS011;2393;50.560;12.636;2023-07-22T07:30:02;11.73;;;5.87;;
4758;SDS011;2393;50.560;12.636;2023-07-22T07:32:32;5.53;;;3.70;;
4758;SDS011;2393;50.560;12.636;2023-07-22T07:35:01;8.63;;;5.20;;
4758;SDS011;2393;50.560;12.636;2023-07-22T07:37:31;9.00;;;4.97;;
4758;SDS011;2393;50.560;12.636;2023-07-22T07:40:03;5.27;;;3.83;;
4758;SDS011;2393;50.560;12.636;2023-07-22T07:42:32;5.40;;;4.07;;
4758;SDS011;2393;50.560;12.636;2023-07-22T07:45:01;3.97;;;3.27;;
4758;SDS011;2393;50.560;12.636;2023-07-22T07:47:29;4.60;;;2.50;;
4758;SDS011;2393;50.560;12.636;2023-07-22T07:49:58;3.40;;;2.77;;
4758;SDS011;2393;50.560;12.636;2023-07-22T07:52:37;4.10;;;3.57;;
4758;SDS011;2393;50.560;12.636;2023-07-22T07:55:09;5.20;;;3.90;;
4758;SDS011;2393;50.560;12.636;2023-07-22T07:57:38;3.40;;;3.10;;
4758;SDS011;2393;50.560;12.636;2023-07-22T08:00:07;4.77;;;3.77;;
4758;SDS011;2393;50.560;12.636;2023-07-22T08:02:36;7.03;;;3.10;;
4758;SDS011;2393;50.560;12.636;2023-07-22T08:05:07;2.57;;;2.37;;
4758;SDS011;2393;50.560;12.636;2023-07-22T08:07:37;9.30;;;2.97;;
4758;SDS011;2393;50.560;12.636;2023-07-22T08:10:08;4.43;;;2.73;;
4758;SDS011;2393;50.560;12.636;2023-07-22T08:12:37;3.20;;;2.43;;
4758;SDS011;2393;50.560;12.636;2023-07-22T08:15:06;3.03;;;2.03;;
4758;SDS011;2393;50.560;12.636;2023-07-22T08:17:36;3.73;;;2.30;;
4758;SDS011;2393;50.560;12.636;2023-07-22T08:20:05;2.57;;;2.40;;
4758;SDS011;2393;50.560;12.636;2023-07-22T08:22:35;2.57;;;2.37;;
4758;SDS011;2393;50.560;12.636;2023-07-22T08:25:05;5.70;;;3.23;;
4758;SDS011;2393;50.560;12.636;2023-07-22T08:27:35;4.20;;;2.50;;
4758;SDS011;2393;50.560;12.636;2023-07-22T08:30:05;5.10;;;3.60;;
4758;SDS011;2393;50.560;12.636;2023-07-22T08:32:35;2.90;;;2.70;;
4758;SDS011;2393;50.560;12.636;2023-07-22T08:35:04;2.30;;;2.10;;
4758;SDS011;2393;50.560;12.636;2023-07-22T08:37:33;2.53;;;2.43;;
4758;SDS011;2393;50.560;12.636;2023-07-22T08:40:02;3.00;;;2.80;;
4758;SDS011;2393;50.560;12.636;2023-07-22T08:42:33;3.20;;;2.67;;
4758;SDS011;2393;50.560;12.636;2023-07-22T08:45:04;2.33;;;2.17;;
4758;SDS011;2393;50.560;12.636;2023-07-22T08:47:38;2.00;;;1.90;;
4758;SDS011;2393;50.560;12.636;2023-07-22T08:50:18;2.70;;;2.30;;
4758;SDS011;2393;50.560;12.636;2023-07-22T08:52:48;10.07;;;2.67;;
4758;SDS011;2393;50.560;12.636;2023-07-22T08:55:18;2.63;;;2.40;;
4758;SDS011;2393;50.560;12.636;2023-07-22T08:57:50;2.60;;;1.93;;
4758;SDS011;2393;50.560;12.636;2023-07-22T09:00:20;2.10;;;2.00;;
4758;SDS011;2393;50.560;12.636;2023-07-22T09:02:49;2.63;;;2.10;;
4758;SDS011;2393;50.560;12.636;2023-07-22T09:05:20;2.20;;;1.67;;
4758;SDS011;2393;50.560;12.636;2023-07-22T09:07:49;3.30;;;2.53;;
4758;SDS011;2393;50.560;12.636;2023-07-22T09:10:19;3.53;;;2.17;;
4758;SDS011;2393;50.560;12.636;2023-07-22T09:12:50;2.77;;;2.00;;
4758;SDS011;2393;50.560;12.636;2023-07-22T09:15:19;3.03;;;2.50;;
4758;SDS011;2393;50.560;12.636;2023-07-22T09:17:50;1.73;;;1.63;;
4758;SDS011;2393;50.560;12.636;2023-07-22T09:20:20;1.73;;;1.63;;
4758;SDS011;2393;50.560;12.636;2023-07-22T09:22:50;2.10;;;1.87;;
4758;SDS011;2393;50.560;12.636;2023-07-22T09:25:39;4.50;;;2.47;;
4758;SDS011;2393;50.560;12.636;2023-07-22T09:28:10;2.13;;;1.87;;
4758;SDS011;2393;50.560;12.636;2023-07-22T09:30:39;2.20;;;2.10;;
4758;SDS011;2393;50.560;12.636;2023-07-22T09:33:19;2.63;;;2.00;;
4758;SDS011;2393;50.560;12.636;2023-07-22T09:35:51;1.83;;;1.63;;
4758;SDS011;2393;50.560;12.636;2023-07-22T09:38:22;1.80;;;1.70;;
4758;SDS011;2393;50.560;12.636;2023-07-22T09:40:53;2.20;;;1.70;;
4758;SDS011;2393;50.560;12.636;2023-07-22T09:43:24;2.30;;;2.00;;
4758;SDS011;2393;50.560;12.636;2023-07-22T09:45:52;2.53;;;2.33;;
4758;SDS011;2393;50.560;12.636;2023-07-22T09:48:21;3.03;;;1.93;;
4758;SDS011;2393;50.560;12.636;2023-07-22T09:50:55;1.63;;;1.53;;
4758;SDS011;2393;50.560;12.636;2023-07-22T09:53:25;1.40;;;1.40;;
4758;SDS011;2393;50.560;12.636;2023-07-22T09:55:54;1.90;;;1.80;;
4758;SDS011;2393;50.560;12.636;2023-07-22T09:58:24;2.93;;;1.60;;
4758;SDS011;2393;50.560;12.636;2023-07-22T10:00:57;2.03;;;1.83;;
4758;SDS011;2393;50.560;12.636;2023-07-22T10:03:27;1.87;;;1.77;;
4758;SDS011;2393;50.560;12.636;2023-07-22T10:05:57;1.73;;;1.63;;
4758;SDS011;2393;50.560;12.636;2023-07-22T10:08:28;1.83;;;1.73;;
4758;SDS011;2393;50.560;12.636;2023-07-22T10:11:05;2.10;;;1.97;;
4758;SDS011;2393;50.560;12.636;2023-07-22T10:13:39;1.83;;;1.73;;
4758;SDS011;2393;50.560;12.636;2023-07-22T10:16:08;2.00;;;1.90;;
4758;SDS011;2393;50.560;12.636;2023-07-22T10:18:38;1.90;;;1.63;;
4758;SDS011;2393;50.560;12.636;2023-07-22T10:21:09;1.93;;;1.83;;
4758;SDS011;2393;50.560;12.636;2023-07-22T10:23:40;3.53;;;2.20;;
4758;SDS011;2393;50.560;12.636;2023-07-22T10:26:09;1.80;;;1.70;;
4758;SDS011;2393;50.560;12.636;2023-07-22T10:28:41;1.57;;;1.47;;
4758;SDS011;2393;50.560;12.636;2023-07-22T10:31:12;1.90;;;1.53;;
4758;SDS011;2393;50.560;12.636;2023-07-22T10:33:45;2.70;;;1.50;;
4758;SDS011;2393;50.560;12.636;2023-07-22T10:36:15;2.23;;;2.03;;
4758;SDS011;2393;50.560;12.636;2023-07-22T10:38:55;1.80;;;1.33;;
4758;SDS011;2393;50.560;12.636;2023-07-22T10:41:28;1.60;;;1.50;;
4758;SDS011;2393;50.560;12.636;2023-07-22T10:43:58;4.07;;;1.87;;
4758;SDS011;2393;50.560;12.636;2023-07-22T10:46:31;2.00;;;1.80;;
4758;SDS011;2393;50.560;12.636;2023-07-22T10:49:11;2.53;;;1.90;;
4758;SDS011;2393;50.560;12.636;2023-07-22T10:51:40;1.97;;;1.83;;
4758;SDS011;2393;50.560;12.636;2023-07-22T10:54:12;1.40;;;1.20;;
4758;SDS011;2393;50.560;12.636;2023-07-22T10:56:42;1.67;;;1.57;;
4758;SDS011;2393;50.560;12.636;2023-07-22T10:59:13;1.90;;;1.70;;
4758;SDS011;2393;50.560;12.636;2023-07-22T11:01:43;1.40;;;1.40;;
4758;SDS011;2393;50.560;12.636;2023-07-22T11:07:03;4.20;;;2.00;;
4758;SDS011;2393;50.560;12.636;2023-07-22T11:09:33;2.47;;;2.27;;
4758;SDS011;2393;50.560;12.636;2023-07-22T11:12:13;2.47;;;1.90;;
4758;SDS011;2393;50.560;12.636;2023-07-22T11:14:49;1.60;;;1.50;;
4758;SDS011;2393;50.560;12.636;2023-07-22T11:17:27;1.90;;;1.80;;
4758;SDS011;2393;50.560;12.636;2023-07-22T11:19:57;3.53;;;1.60;;
4758;SDS011;2393;50.560;12.636;2023-07-22T11:22:27;1.40;;;1.30;;
4758;SDS011;2393;50.560;12.636;2023-07-22T11:24:57;1.80;;;1.70;;
4758;SDS011;2393;50.560;12.636;2023-07-22T11:27:26;1.97;;;1.57;;
4758;SDS011;2393;50.560;12.636;2023-07-22T11:29:58;2.70;;;1.50;;
4758;SDS011;2393;50.560;12.636;2023-07-22T11:32:27;1.47;;;1.37;;
4758;SDS011;2393;50.560;12.636;2023-07-22T11:34:55;2.20;;;1.80;;
4758;SDS011;2393;50.560;12.636;2023-07-22T11:37:27;3.80;;;1.60;;
4758;SDS011;2393;50.560;12.636;2023-07-22T11:39:59;1.90;;;1.53;;
4758;SDS011;2393;50.560;12.636;2023-07-22T11:42:28;1.90;;;1.80;;
4758;SDS011;2393;50.560;12.636;2023-07-22T11:44:58;1.70;;;1.60;;
4758;SDS011;2393;50.560;12.636;2023-07-22T11:47:28;2.33;;;2.10;;
4758;SDS011;2393;50.560;12.636;2023-07-22T11:49:58;3.03;;;1.10;;
4758;SDS011;2393;50.560;12.636;2023-07-22T11:52:26;1.60;;;1.50;;
4758;SDS011;2393;50.560;12.636;2023-07-22T11:54:55;4.83;;;1.90;;
4758;SDS011;2393;50.560;12.636;2023-07-22T11:57:30;1.80;;;1.70;;
4758;SDS011;2393;50.560;12.636;2023-07-22T12:00:00;2.10;;;2.00;;
4758;SDS011;2393;50.560;12.636;2023-07-22T12:02:30;1.97;;;1.77;;
4758;SDS011;2393;50.560;12.636;2023-07-22T12:05:04;2.23;;;2.03;;
4758;SDS011;2393;50.560;12.636;2023-07-22T12:07:35;1.97;;;1.87;;
4758;SDS011;2393;50.560;12.636;2023-07-22T12:10:05;3.60;;;2.30;;
4758;SDS011;2393;50.560;12.636;2023-07-22T12:12:37;1.93;;;1.83;;
4758;SDS011;2393;50.560;12.636;2023-07-22T12:15:11;2.00;;;1.70;;
4758;SDS011;2393;50.560;12.636;2023-07-22T12:17:43;6.00;;;1.87;;
4758;SDS011;2393;50.560;12.636;2023-07-22T12:20:15;2.17;;;1.90;;
4758;SDS011;2393;50.560;12.636;2023-07-22T12:22:45;2.00;;;1.90;;
4758;SDS011;2393;50.560;12.636;2023-07-22T12:25:15;3.00;;;2.17;;
4758;SDS011;2393;50.560;12.636;2023-07-22T12:27:44;2.30;;;2.20;;
4758;SDS011;2393;50.560;12.636;2023-07-22T12:30:21;2.33;;;2.13;;
4758;SDS011;2393;50.560;12.636;2023-07-22T12:32:50;3.23;;;1.83;;
4758;SDS011;2393;50.560;12.636;2023-07-22T12:35:20;2.00;;;1.90;;
4758;SDS011;2393;50.560;12.636;2023-07-22T12:37:50;4.00;;;2.20;;
4758;SDS011;2393;50.560;12.636;2023-07-22T12:40:18;2.50;;;2.30;;
4758;SDS011;2393;50.560;12.636;2023-07-22T12:42:47;4.57;;;2.40;;
4758;SDS011;2393;50.560;12.636;2023-07-22T12:45:16;3.07;;;2.60;;
4758;SDS011;2393;50.560;12.636;2023-07-22T12:47:50;3.33;;;2.70;;
4758;SDS011;2393;50.560;12.636;2023-07-22T12:50:18;3.87;;;2.20;;
4758;SDS011;2393;50.560;12.636;2023-07-22T12:52:47;3.50;;;2.30;;
4758;SDS011;2393;50.560;12.636;2023-07-22T12:55:16;2.27;;;2.07;;
4758;SDS011;2393;50.560;12.636;2023-07-22T12:57:50;4.73;;;2.37;;
4758;SDS011;2393;50.560;12.636;2023-07-22T13:00:22;2.97;;;1.80;;
4758;SDS011;2393;50.560;12.636;2023-07-22T13:02:52;2.57;;;2.30;;
4758;SDS011;2393;50.560;12.636;2023-07-22T13:05:20;3.10;;;2.50;;
4758;SDS011;2393;50.560;12.636;2023-07-22T13:07:49;2.20;;;2.00;;
4758;SDS011;2393;50.560;12.636;2023-07-22T13:10:18;2.57;;;2.33;;
4758;SDS011;2393;50.560;12.636;2023-07-22T13:12:48;4.10;;;1.80;;
4758;SDS011;2393;50.560;12.636;2023-07-22T13:15:17;2.20;;;2.10;;
4758;SDS011;2393;50.560;12.636;2023-07-22T13:17:47;4.13;;;2.70;;
4758;SDS011;2393;50.560;12.636;2023-07-22T13:20:16;3.20;;;2.27;;
4758;SDS011;2393;50.560;12.636;2023-07-22T13:22:45;3.60;;;2.00;;
4758;SDS011;2393;50.560;12.636;2023-07-22T13:25:13;6.80;;;2.20;;
4758;SDS011;2393;50.560;12.636;2023-07-22T13:27:42;2.83;;;2.60;;
4758;SDS011;2393;50.560;12.636;2023-07-22T13:30:11;3.17;;;2.83;;
4758;SDS011;2393;50.560;12.636;2023-07-22T13:32:40;2.27;;;2.07;;
4758;SDS011;2393;50.560;12.636;2023-07-22T13:35:11;2.83;;;2.40;;
4758;SDS011;2393;50.560;12.636;2023-07-22T13:37:40;2.50;;;2.30;;
4758;SDS011;2393;50.560;12.636;2023-07-22T13:40:12;2.10;;;1.90;;
4758;SDS011;2393;50.560;12.636;2023-07-22T13:42:41;2.57;;;2.37;;
4758;SDS011;2393;50.560;12.636;2023-07-22T13:45:11;3.20;;;2.17;;
4758;SDS011;2393;50.560;12.636;2023-07-22T13:47:42;4.03;;;2.60;;
4758;SDS011;2393;50.560;12.636;2023-07-22T13:50:12;2.43;;;2.33;;
4758;SDS011;2393;50.560;12.636;2023-07-22T13:52:42;4.57;;;2.93;;
4758;SDS011;2393;50.560;12.636;2023-07-22T13:55:10;2.40;;;2.30;;
4758;SDS011;2393;50.560;12.636;2023-07-22T13:57:40;2.47;;;2.23;;
4758;SDS011;2393;50.560;12.636;2023-07-22T14:00:09;2.60;;;2.40;;
4758;SDS011;2393;50.560;12.636;2023-07-22T14:02:39;3.90;;;2.20;;
4758;SDS011;2393;50.560;12.636;2023-07-22T14:05:09;6.77;;;2.50;;
4758;SDS011;2393;50.560;12.636;2023-07-22T14:07:40;3.97;;;2.53;;
4758;SDS011;2393;50.560;12.636;2023-07-22T14:10:09;4.00;;;2.10;;
4758;SDS011;2393;50.560;12.636;2023-07-22T14:12:38;2.87;;;2.63;;
4758;SDS011;2393;50.560;12.636;2023-07-22T14:15:07;2.93;;;2.43;;
4758;SDS011;2393;50.560;12.636;2023-07-22T14:17:37;5.20;;;2.80;;
4758;SDS011;2393;50.560;12.636;2023-07-22T14:20:07;3.10;;;2.73;;
4758;SDS011;2393;50.560;12.636;2023-07-22T14:22:41;4.20;;;2.17;;
4758;SDS011;2393;50.560;12.636;2023-07-22T14:25:10;9.33;;;2.57;;
4758;SDS011;2393;50.560;12.636;2023-07-22T14:27:41;3.40;;;3.10;;
4758;SDS011;2393;50.560;12.636;2023-07-22T14:30:10;3.17;;;2.70;;
4758;SDS011;2393;50.560;12.636;2023-07-22T14:32:39;4.30;;;2.67;;
4758;SDS011;2393;50.560;12.636;2023-07-22T14:35:08;7.93;;;2.27;;
4758;SDS011;2393;50.560;12.636;2023-07-22T14:37:40;2.57;;;2.00;;
4758;SDS011;2393;50.560;12.636;2023-07-22T14:40:09;2.93;;;2.53;;
4758;SDS011;2393;50.560;12.636;2023-07-22T14:42:39;3.10;;;2.40;;
4758;SDS011;2393;50.560;12.636;2023-07-22T14:45:08;4.17;;;2.50;;
4758;SDS011;2393;50.560;12.636;2023-07-22T14:47:37;2.40;;;2.20;;
4758;SDS011;2393;50.560;12.636;2023-07-22T14:50:06;3.50;;;2.33;;
4758;SDS011;2393;50.560;12.636;2023-07-22T14:52:36;3.97;;;2.53;;
4758;SDS011;2393;50.560;12.636;2023-07-22T14:55:07;3.20;;;2.20;;
4758;SDS011;2393;50.560;12.636;2023-07-22T14:57:36;2.97;;;2.33;;
4758;SDS011;2393;50.560;12.636;2023-07-22T15:00:05;2.80;;;2.70;;
4758;SDS011;2393;50.560;12.636;2023-07-22T15:02:35;2.53;;;2.27;;
4758;SDS011;2393;50.560;12.636;2023-07-22T15:05:03;3.50;;;2.60;;
4758;SDS011;2393;50.560;12.636;2023-07-22T15:07:32;2.67;;;2.47;;
4758;SDS011;2393;50.560;12.636;2023-07-22T15:10:03;4.47;;;2.23;;
4758;SDS011;2393;50.560;12.636;2023-07-22T15:12:33;12.20;;;2.77;;
4758;SDS011;2393;50.560;12.636;2023-07-22T15:15:02;2.60;;;2.37;;
4758;SDS011;2393;50.560;12.636;2023-07-22T15:17:34;3.27;;;2.30;;
4758;SDS011;2393;50.560;12.636;2023-07-22T15:20:03;2.40;;;2.20;;